createdAt,value
2022-12-04T00:01:09.963Z,-1.11
2022-12-04T00:03:36.786Z,-1.11
2022-12-04T00:06:30.340Z,-1.10
2022-12-04T00:08:56.903Z,-1.08
2022-12-04T00:11:26.477Z,-1.08
2022-12-04T00:13:53.120Z,-1.07
2022-12-04T00:16:22.671Z,-1.14
2022-12-04T00:18:50.873Z,-1.10
2022-12-04T00:21:19.368Z,-1.09
2022-12-04T00:23:46.494Z,-1.30
2022-12-04T00:26:16.441Z,-1.13
2022-12-04T00:28:43.705Z,-1.11
2022-12-04T00:31:18.378Z,-1.08
2022-12-04T00:33:45.540Z,-1.10
2022-12-04T00:36:14.390Z,-1.07
2022-12-04T00:38:42.968Z,-1.06
2022-12-04T00:41:11.194Z,-1.05
2022-12-04T00:43:37.603Z,-1.10
2022-12-04T00:46:04.285Z,-1.11
2022-12-04T00:48:30.782Z,-1.13
2022-12-04T00:51:12.215Z,-1.15
2022-12-04T00:53:39.291Z,-1.12
2022-12-04T00:56:07.831Z,-1.08
2022-12-04T00:58:34.340Z,-1.14
2022-12-04T01:01:15.546Z,-1.11
2022-12-04T01:03:42.470Z,-1.13
2022-12-04T01:06:25.064Z,-1.16
2022-12-04T01:08:52.939Z,-1.11
2022-12-04T01:11:21.259Z,-1.12
2022-12-04T01:13:47.787Z,-1.13
2022-12-04T01:16:18.112Z,-1.14
2022-12-04T01:18:44.940Z,-1.13
2022-12-04T01:21:12.532Z,-1.10
2022-12-04T01:23:38.935Z,-1.12
2022-12-04T01:26:05.535Z,-1.12
2022-12-04T01:28:32.049Z,-1.11
2022-12-04T01:31:05.951Z,-1.07
2022-12-04T01:33:34.595Z,-1.09
2022-12-04T01:36:02.812Z,-1.14
2022-12-04T01:38:29.851Z,-1.12
2022-12-04T01:40:57.374Z,-1.11
2022-12-04T01:43:25.065Z,-1.07
2022-12-04T01:45:57.560Z,-1.07
2022-12-04T01:48:34.787Z,-1.05
2022-12-04T01:51:18.554Z,-1.16
2022-12-04T01:54:00.613Z,-1.07
2022-12-04T01:56:41.392Z,-1.10
2022-12-04T01:59:09.237Z,-1.08
2022-12-04T02:01:53.621Z,-1.04
2022-12-04T02:04:20.544Z,-1.05
2022-12-04T02:06:47.009Z,-1.05
2022-12-04T02:09:13.707Z,-1.03
2022-12-04T02:11:53.165Z,-1.04
2022-12-04T02:14:46.913Z,-1.04
2022-12-04T02:17:33.017Z,-1.04
2022-12-04T02:20:17.653Z,-1.00
2022-12-04T02:23:19.292Z,-1.01
2022-12-04T02:26:01.533Z,-1.02
2022-12-04T02:28:32.149Z,-0.97
2022-12-04T02:31:02.344Z,-1.00
2022-12-04T02:33:35.970Z,-1.01
2022-12-04T02:36:13.770Z,-1.01
2022-12-04T02:38:45.156Z,-0.98
2022-12-04T02:41:25.237Z,-0.98
2022-12-04T02:43:56.296Z,-0.99
2022-12-04T02:46:37.407Z,-1.04
2022-12-04T02:49:09.408Z,-1.01
2022-12-04T02:51:40.107Z,-0.99
2022-12-04T02:54:16.794Z,-0.98
2022-12-04T02:56:47.431Z,-1.01
2022-12-04T02:59:23.177Z,-0.95
2022-12-04T03:01:55.789Z,-0.96
2022-12-04T03:04:25.882Z,-0.99
2022-12-04T03:07:06.804Z,-0.98
2022-12-04T03:09:39.002Z,-0.96
2022-12-04T03:12:19.262Z,-0.97
2022-12-04T03:14:56.174Z,-0.95
2022-12-04T03:17:47.648Z,-0.95
2022-12-04T03:20:15.295Z,-0.96
2022-12-04T03:22:46.486Z,-0.94
2022-12-04T03:25:13.900Z,-0.95
2022-12-04T03:27:43.312Z,-0.94
2022-12-04T03:30:18.757Z,-0.98
2022-12-04T03:32:51.829Z,-0.99
2022-12-04T03:35:47.654Z,-0.96
2022-12-04T03:38:23.898Z,-1.02
2022-12-04T03:41:04.596Z,-0.98
2022-12-04T03:43:56.627Z,-0.96
2022-12-04T03:47:01.031Z,-0.94
2022-12-04T03:49:53.691Z,-0.95
2022-12-04T03:52:33.650Z,-0.94
2022-12-04T03:55:23.833Z,-0.93
2022-12-04T03:57:52.679Z,-0.93
2022-12-04T04:00:22.234Z,-0.92
2022-12-04T04:02:54.436Z,-0.93
2022-12-04T04:05:22.598Z,-0.94
2022-12-04T04:08:18.116Z,-0.95
2022-12-04T04:10:45.505Z,-0.93
2022-12-04T04:13:35.590Z,-0.92
2022-12-04T04:16:25.408Z,-0.92
2022-12-04T04:19:12.743Z,-0.91
2022-12-04T04:22:00.161Z,-0.96
2022-12-04T04:24:31.025Z,-0.92
2022-12-04T04:26:59.445Z,-0.91
2022-12-04T04:29:26.268Z,-0.93
2022-12-04T04:32:15.105Z,-0.92
2022-12-04T04:34:49.090Z,-0.89
2022-12-04T04:37:39.575Z,-0.91
2022-12-04T04:40:33.853Z,-0.92
2022-12-04T04:43:09.544Z,-0.95
2022-12-04T04:45:45.774Z,-0.93
2022-12-04T04:48:20.267Z,-0.92
2022-12-04T04:50:47.228Z,-0.92
2022-12-04T04:53:18.723Z,-0.90
2022-12-04T04:55:45.682Z,-0.91
2022-12-04T04:58:15.528Z,-0.91
2022-12-04T05:00:57.923Z,-0.93
2022-12-04T05:03:24.962Z,-0.91
2022-12-04T05:05:51.635Z,-0.92
2022-12-04T05:08:18.110Z,-0.93
2022-12-04T05:10:44.611Z,-0.87
2022-12-04T05:13:14.866Z,-0.87
2022-12-04T05:15:41.615Z,-0.90
2022-12-04T05:18:08.958Z,-0.90
2022-12-04T05:20:38.741Z,-0.89
2022-12-04T05:23:05.177Z,-0.92
2022-12-04T05:25:31.610Z,-0.92
2022-12-04T05:27:58.281Z,-0.91
2022-12-04T05:30:24.716Z,-0.88
2022-12-04T05:32:51.234Z,-0.87
2022-12-04T05:35:17.651Z,-0.86
2022-12-04T05:37:45.600Z,-0.86
2022-12-04T05:40:12.322Z,-0.87
2022-12-04T05:42:38.829Z,-0.86
2022-12-04T05:45:05.701Z,-0.82
2022-12-04T05:47:32.094Z,-0.82
2022-12-04T05:49:58.629Z,-0.81
2022-12-04T05:52:25.182Z,-0.79
2022-12-04T05:54:52.653Z,-0.81
2022-12-04T05:57:19.075Z,-0.81
2022-12-04T05:59:45.532Z,-0.82
2022-12-04T06:02:11.995Z,-0.83
2022-12-04T06:04:38.540Z,-0.84
2022-12-04T06:07:05.299Z,-0.89
2022-12-04T06:09:31.727Z,-0.80
2022-12-04T06:11:58.918Z,-0.84
2022-12-04T06:14:25.902Z,-0.84
2022-12-04T06:16:52.573Z,-0.81
2022-12-04T06:19:22.445Z,-0.82
2022-12-04T06:21:51.515Z,-0.81
2022-12-04T06:24:21.650Z,-0.83
2022-12-04T06:27:18.725Z,-0.83
2022-12-04T06:29:35.645Z,-0.88
2022-12-04T06:32:02.338Z,-0.86
2022-12-04T06:34:29.009Z,-0.86
2022-12-04T06:36:55.452Z,-0.83
2022-12-04T06:39:21.969Z,-0.84
2022-12-04T06:41:48.455Z,-0.83
2022-12-04T06:44:16.140Z,-0.85
2022-12-04T06:46:46.923Z,-0.86
2022-12-04T06:49:14.270Z,-0.86
2022-12-04T06:51:41.817Z,-0.89
2022-12-04T06:54:09.722Z,-0.86
2022-12-04T06:56:36.186Z,-0.87
2022-12-04T06:59:04.162Z,-0.83
2022-12-04T07:01:32.850Z,-0.84
2022-12-04T07:04:00.986Z,-0.83
2022-12-04T07:06:30.306Z,-0.81
2022-12-04T07:09:17.683Z,-0.80
2022-12-04T07:11:45.229Z,-0.81
2022-12-04T07:14:13.007Z,-0.80
2022-12-04T07:16:41.986Z,-0.80
2022-12-04T07:19:10.737Z,-0.81
2022-12-04T07:21:37.221Z,-0.80
2022-12-04T07:24:04.156Z,-0.91
2022-12-04T07:26:31.346Z,-0.79
2022-12-04T07:29:00.364Z,-0.75
2022-12-04T07:31:28.901Z,-0.73
2022-12-04T07:33:56.165Z,-0.74
2022-12-04T07:36:24.041Z,-0.73
2022-12-04T07:38:51.307Z,-0.73
2022-12-04T07:41:20.544Z,-0.73
2022-12-04T07:43:47.319Z,-0.74
2022-12-04T07:46:17.230Z,-0.71
2022-12-04T07:48:44.141Z,-0.72
2022-12-04T07:51:15.942Z,-0.71
2022-12-04T07:53:43.556Z,-0.72
2022-12-04T07:56:11.485Z,-0.70
2022-12-04T07:58:38.284Z,-0.71
2022-12-04T08:01:10.861Z,-0.69
2022-12-04T08:03:42.101Z,-0.71
2022-12-04T08:06:12.286Z,-0.71
2022-12-04T08:08:38.732Z,-0.70
2022-12-04T08:11:07.619Z,-0.71
2022-12-04T08:13:34.490Z,-0.68
2022-12-04T08:16:05.043Z,-0.68
2022-12-04T08:18:32.271Z,-0.68
2022-12-04T08:21:16.335Z,-0.70
2022-12-04T08:23:44.300Z,-0.69
2022-12-04T08:26:11.604Z,-0.72
2022-12-04T08:28:40.599Z,-0.67
2022-12-04T08:31:12.867Z,-0.67
2022-12-04T08:33:39.644Z,-0.68
2022-12-04T08:36:08.103Z,-0.64
2022-12-04T08:38:34.822Z,-0.67
2022-12-04T08:41:07.032Z,-0.66
2022-12-04T08:43:33.629Z,-0.63
2022-12-04T08:46:06.148Z,-0.62
2022-12-04T08:48:33.612Z,-0.64
2022-12-04T08:51:01.061Z,-0.62
2022-12-04T08:53:27.505Z,-0.65
2022-12-04T08:55:55.008Z,-0.66
2022-12-04T08:58:22.019Z,-0.63
2022-12-04T09:00:48.686Z,-0.61
2022-12-04T09:03:17.582Z,-0.61
2022-12-04T09:05:45.964Z,-0.61
2022-12-04T09:08:17.616Z,-0.59
2022-12-04T09:10:44.485Z,-0.63
2022-12-04T09:13:10.894Z,-0.59
2022-12-04T09:15:41.008Z,-0.59
2022-12-04T09:18:07.982Z,-0.61
2022-12-04T09:20:34.583Z,-0.59
2022-12-04T09:23:04.379Z,-0.61
2022-12-04T09:25:34.656Z,-0.62
2022-12-04T09:28:01.170Z,-0.62
2022-12-04T09:30:27.588Z,-0.62
2022-12-04T09:32:54.059Z,-0.58
2022-12-04T09:35:20.484Z,-0.57
2022-12-04T09:37:46.913Z,-0.55
2022-12-04T09:40:37.158Z,-0.56
2022-12-04T09:43:16.378Z,-0.55
2022-12-04T09:45:49.440Z,-0.60
2022-12-04T09:48:18.026Z,-0.58
2022-12-04T09:50:48.635Z,-0.55
2022-12-04T09:53:34.679Z,-0.53
2022-12-04T09:56:06.512Z,-0.53
2022-12-04T09:58:41.779Z,-0.54
2022-12-04T10:01:22.048Z,-0.52
2022-12-04T10:03:49.142Z,-0.49
2022-12-04T10:06:31.061Z,-0.53
2022-12-04T10:09:06.286Z,-0.56
2022-12-04T10:11:48.224Z,-0.54
2022-12-04T10:14:28.379Z,-0.53
2022-12-04T10:17:13.521Z,-0.51
2022-12-04T10:20:11.622Z,-0.51
2022-12-04T10:23:25.810Z,-0.46
2022-12-04T10:25:54.869Z,-0.49
2022-12-04T10:28:27.131Z,-0.46
2022-12-04T10:30:57.845Z,-0.45
2022-12-04T10:33:37.534Z,-0.50
2022-12-04T10:36:06.003Z,-0.52
2022-12-04T10:38:55.570Z,-0.51
2022-12-04T10:41:31.174Z,-0.48
2022-12-04T10:43:57.584Z,-0.50
2022-12-04T10:46:27.652Z,-0.53
2022-12-04T10:49:01.370Z,-0.54
2022-12-04T10:51:32.179Z,-0.54
2022-12-04T10:53:59.883Z,-0.50
2022-12-04T10:56:26.773Z,-0.54
2022-12-04T10:58:59.031Z,-0.52
2022-12-04T11:01:26.633Z,-0.54
2022-12-04T11:04:02.051Z,-0.49
2022-12-04T11:06:29.658Z,-0.51
2022-12-04T11:08:57.335Z,-0.52
2022-12-04T11:11:33.164Z,-0.53
2022-12-04T11:14:13.470Z,-0.51
2022-12-04T11:16:46.342Z,-0.53
2022-12-04T11:19:20.077Z,-0.50
2022-12-04T11:21:47.004Z,-0.51
2022-12-04T11:24:22.479Z,-0.65
2022-12-04T11:26:49.568Z,-0.52
2022-12-04T11:29:18.669Z,-0.53
2022-12-04T11:31:53.116Z,-0.55
2022-12-04T11:34:22.427Z,-0.51
2022-12-04T11:36:56.388Z,-0.53
2022-12-04T11:39:40.369Z,-0.55
2022-12-04T11:42:19.557Z,-0.57
2022-12-04T11:44:55.373Z,-0.53
2022-12-04T11:47:26.016Z,-0.55
2022-12-04T11:50:24.923Z,-0.55
2022-12-04T11:53:05.397Z,-0.59
2022-12-04T11:55:42.723Z,-0.64
2022-12-04T11:58:27.713Z,-0.57
2022-12-04T12:01:13.945Z,-0.61
2022-12-04T12:04:07.643Z,-0.61
2022-12-04T12:06:56.588Z,-0.59
2022-12-04T12:09:24.159Z,-0.55
2022-12-04T12:12:02.675Z,-0.57
2022-12-04T12:15:00.527Z,-0.62
2022-12-04T12:17:30.142Z,-0.58
2022-12-04T12:20:19.858Z,-0.61
2022-12-04T12:23:02.266Z,-0.62
2022-12-04T12:25:52.141Z,-0.58
2022-12-04T12:28:25.076Z,-0.61
2022-12-04T12:31:05.954Z,-0.66
2022-12-04T12:34:11.156Z,-0.64
2022-12-04T12:36:47.341Z,-0.64
2022-12-04T12:39:25.157Z,-0.66
2022-12-04T12:41:55.332Z,-0.64
2022-12-04T12:44:30.238Z,-0.65
2022-12-04T12:47:08.086Z,-0.65
2022-12-04T12:49:50.075Z,-0.66
2022-12-04T12:52:34.347Z,-0.64
2022-12-04T12:55:16.096Z,-0.63
2022-12-04T12:57:47.991Z,-0.61
2022-12-04T13:00:21.536Z,-0.59
2022-12-04T13:03:05.080Z,-0.60
2022-12-04T13:05:38.083Z,-0.62
2022-12-04T13:08:25.029Z,-0.57
2022-12-04T13:11:06.754Z,-0.56
2022-12-04T13:13:38.927Z,-0.59
2022-12-04T13:16:14.866Z,-0.61
2022-12-04T13:19:12.302Z,-0.63
2022-12-04T13:22:26.598Z,-0.60
2022-12-04T13:25:04.748Z,-0.57
2022-12-04T13:28:19.273Z,-0.53
2022-12-04T13:30:56.472Z,-0.51
2022-12-04T13:33:37.997Z,-0.48
2022-12-04T13:36:14.785Z,-0.52
2022-12-04T13:38:58.072Z,-0.53
2022-12-04T13:41:27.237Z,-0.53
2022-12-04T13:43:55.499Z,-0.53
2022-12-04T13:46:42.310Z,-0.51
2022-12-04T13:49:17.923Z,-0.51
2022-12-04T13:51:52.162Z,-0.50
2022-12-04T13:54:35.917Z,-0.50
2022-12-04T13:57:22.623Z,-0.49
2022-12-04T13:59:49.737Z,-0.48
2022-12-04T14:02:27.464Z,-0.49
2022-12-04T14:04:57.568Z,-0.53
2022-12-04T14:07:28.948Z,-0.53
2022-12-04T14:09:58.580Z,-0.46
2022-12-04T14:12:32.026Z,-0.48
2022-12-04T14:15:03.052Z,-0.49
2022-12-04T14:17:33.475Z,-0.51
2022-12-04T14:20:07.558Z,-0.47
2022-12-04T14:22:35.567Z,-0.45
2022-12-04T14:25:12.415Z,-0.44
2022-12-04T14:27:41.863Z,-0.41
2022-12-04T14:30:29.675Z,-0.42
2022-12-04T14:33:09.114Z,-0.46
2022-12-04T14:35:45.080Z,-0.41
2022-12-04T14:38:19.380Z,-0.51
2022-12-04T14:40:49.800Z,-0.40
2022-12-04T14:43:22.512Z,-0.34
2022-12-04T14:45:58.193Z,-0.38
2022-12-04T14:48:40.177Z,-0.30
2022-12-04T14:51:30.560Z,-0.30
2022-12-04T14:54:25.402Z,-0.31
2022-12-04T14:57:17.302Z,-0.29
2022-12-04T14:59:47.110Z,-0.31
2022-12-04T15:02:19.608Z,-0.30
2022-12-04T15:04:47.988Z,-0.31
2022-12-04T15:07:23.971Z,-0.31
2022-12-04T15:10:14.519Z,-0.31
2022-12-04T15:12:52.388Z,-0.29
2022-12-04T15:15:28.108Z,-0.28
2022-12-04T15:18:02.497Z,-0.27
2022-12-04T15:20:50.027Z,-0.25
2022-12-04T15:23:21.519Z,-0.28
2022-12-04T15:25:54.932Z,-0.22
2022-12-04T15:28:28.975Z,-0.25
2022-12-04T15:30:58.037Z,-0.22
2022-12-04T15:33:28.936Z,-0.20
2022-12-04T15:36:02.800Z,-0.22
2022-12-04T15:38:29.614Z,-0.20
2022-12-04T15:40:59.159Z,-0.19
2022-12-04T15:43:41.208Z,-0.18
2022-12-04T15:46:21.043Z,-0.17
2022-12-04T15:48:48.092Z,-0.18
2022-12-04T15:51:20.246Z,-0.16
2022-12-04T15:53:47.813Z,-0.15
2022-12-04T15:56:19.610Z,-0.17
2022-12-04T15:58:54.737Z,-0.14
2022-12-04T16:01:22.018Z,-0.18
2022-12-04T16:03:53.977Z,-0.16
2022-12-04T16:06:31.231Z,-0.14
2022-12-04T16:09:21.847Z,-0.10
2022-12-04T16:11:58.154Z,-0.10
2022-12-04T16:14:24.575Z,-0.10
2022-12-04T16:16:52.847Z,-0.08
2022-12-04T16:19:30.268Z,-0.06
2022-12-04T16:21:57.701Z,-0.03
2022-12-04T16:24:24.564Z,-0.05
2022-12-04T16:26:52.637Z,-0.01
2022-12-04T16:29:19.165Z,0.00
2022-12-04T16:31:45.918Z,-0.01
2022-12-04T16:34:13.777Z,0.02
2022-12-04T16:36:40.530Z,0.05
2022-12-04T16:39:07.051Z,0.06
2022-12-04T16:41:33.654Z,0.07
2022-12-04T16:44:00.752Z,0.09
2022-12-04T16:46:28.903Z,0.08
2022-12-04T16:48:55.962Z,0.14
2022-12-04T16:51:25.581Z,0.10
2022-12-04T16:53:53.099Z,0.14
2022-12-04T16:56:20.286Z,0.15
2022-12-04T16:58:47.009Z,0.13
2022-12-04T17:01:25.716Z,0.14
2022-12-04T17:03:52.754Z,0.15
2022-12-04T17:06:19.625Z,0.16
2022-12-04T17:08:46.347Z,0.18
2022-12-04T17:11:14.489Z,0.19
2022-12-04T17:13:41.930Z,0.19
2022-12-04T17:16:09.061Z,0.22
2022-12-04T17:18:35.533Z,0.25
2022-12-04T17:21:09.536Z,0.28
2022-12-04T17:23:36.523Z,0.28
2022-12-04T17:26:04.636Z,0.31
2022-12-04T17:28:31.373Z,0.31
2022-12-04T17:30:58.187Z,0.31
2022-12-04T17:33:25.641Z,0.31
2022-12-04T17:35:54.042Z,0.32
2022-12-04T17:38:20.584Z,0.33
2022-12-04T17:41:01.440Z,0.39
2022-12-04T17:43:29.539Z,0.41
2022-12-04T17:45:56.241Z,0.41
2022-12-04T17:48:23.298Z,0.42
2022-12-04T17:50:49.898Z,0.45
2022-12-04T17:53:16.651Z,0.46
2022-12-04T17:55:43.090Z,0.46
2022-12-04T17:58:09.563Z,0.47
2022-12-04T18:00:36.829Z,0.47
2022-12-04T18:03:03.420Z,0.47
2022-12-04T18:05:31.974Z,0.48
2022-12-04T18:07:59.343Z,0.48
2022-12-04T18:10:25.810Z,0.51
2022-12-04T18:12:52.283Z,0.52
2022-12-04T18:15:18.693Z,0.52
2022-12-04T18:17:45.506Z,0.53
2022-12-04T18:20:12.280Z,0.53
2022-12-04T18:22:38.726Z,0.59
2022-12-04T18:25:07.331Z,0.60
2022-12-04T18:27:36.711Z,0.56
2022-12-04T18:30:07.490Z,0.59
2022-12-04T18:32:34.049Z,0.45
2022-12-04T18:35:00.460Z,0.62
2022-12-04T18:37:27.000Z,0.56
2022-12-04T18:39:53.590Z,0.67
2022-12-04T18:42:20.273Z,0.68
2022-12-04T18:44:47.071Z,0.69
2022-12-04T18:47:13.513Z,0.72
2022-12-04T18:49:39.990Z,0.75
2022-12-04T18:52:06.504Z,0.77
2022-12-04T18:54:33.015Z,0.78
2022-12-04T18:56:59.452Z,0.79
2022-12-04T18:59:27.013Z,0.78
2022-12-04T19:01:54.052Z,0.79
2022-12-04T19:04:23.149Z,0.79
2022-12-04T19:06:53.338Z,0.81
2022-12-04T19:09:40.978Z,0.81
2022-12-04T19:12:10.297Z,0.82
2022-12-04T19:14:38.569Z,0.83
2022-12-04T19:17:05.158Z,0.83
2022-12-04T19:19:32.055Z,0.83
2022-12-04T19:21:59.181Z,0.82
2022-12-04T19:24:25.629Z,0.83
2022-12-04T19:26:54.183Z,0.83
2022-12-04T19:29:20.618Z,0.86
2022-12-04T19:31:47.234Z,0.82
2022-12-04T19:34:13.718Z,0.83
2022-12-04T19:36:41.171Z,0.80
2022-12-04T19:39:07.659Z,0.77
2022-12-04T19:41:35.275Z,0.82
2022-12-04T19:44:07.845Z,0.78
2022-12-04T19:46:41.681Z,0.81
2022-12-04T19:49:08.242Z,0.79
2022-12-04T19:51:38.052Z,0.78
2022-12-04T19:54:05.464Z,0.80
2022-12-04T19:56:33.268Z,0.82
2022-12-04T19:59:03.153Z,0.71
2022-12-04T20:01:32.274Z,0.78
2022-12-04T20:04:00.303Z,0.82
2022-12-04T20:06:28.373Z,0.84
2022-12-04T20:08:57.632Z,0.88
2022-12-04T20:11:24.720Z,0.86
2022-12-04T20:13:55.487Z,0.90
2022-12-04T20:16:24.315Z,0.90
2022-12-04T20:18:51.118Z,0.91
2022-12-04T20:21:18.565Z,0.84
2022-12-04T20:23:49.367Z,0.92
2022-12-04T20:26:19.624Z,0.94
2022-12-04T20:28:46.630Z,0.94
2022-12-04T20:31:26.748Z,0.99
2022-12-04T20:33:55.305Z,0.99
2022-12-04T20:36:23.884Z,1.00
2022-12-04T20:38:53.098Z,1.01
2022-12-04T20:41:20.258Z,1.02
2022-12-04T20:43:47.854Z,1.06
2022-12-04T20:46:21.631Z,1.08
2022-12-04T20:48:49.394Z,1.08
2022-12-04T20:51:21.215Z,1.12
2022-12-04T20:53:49.701Z,1.14
2022-12-04T20:56:17.114Z,1.16
2022-12-04T20:58:43.545Z,1.17
2022-12-04T21:01:17.164Z,1.20
2022-12-04T21:03:45.592Z,1.22
2022-12-04T21:06:27.294Z,1.23
2022-12-04T21:09:01.944Z,1.25
2022-12-04T21:11:37.935Z,1.28
2022-12-04T21:14:27.127Z,1.30
2022-12-04T21:16:53.548Z,1.32
2022-12-04T21:19:21.498Z,1.32
2022-12-04T21:21:48.690Z,1.36
2022-12-04T21:24:17.267Z,1.38
2022-12-04T21:26:43.795Z,1.38
2022-12-04T21:29:10.755Z,1.40
2022-12-04T21:31:38.129Z,1.43
2022-12-04T21:34:06.846Z,1.45
2022-12-04T21:36:33.771Z,1.50
2022-12-04T21:39:00.526Z,1.52
2022-12-04T21:41:46.055Z,1.54
2022-12-04T21:44:18.075Z,1.53
2022-12-04T21:46:45.519Z,1.58
2022-12-04T21:49:13.625Z,1.56
2022-12-04T21:51:56.656Z,1.55
2022-12-04T21:54:23.576Z,1.62
2022-12-04T21:56:50.036Z,1.61
2022-12-04T21:59:16.539Z,1.64
2022-12-04T22:01:43.153Z,1.66
2022-12-04T22:04:09.636Z,1.67
2022-12-04T22:06:36.219Z,1.64
2022-12-04T22:09:05.734Z,1.62
2022-12-04T22:11:32.299Z,1.61
2022-12-04T22:13:58.795Z,1.66
2022-12-04T22:16:30.249Z,1.69
2022-12-04T22:19:00.093Z,1.73
2022-12-04T22:21:27.887Z,1.74
2022-12-04T22:23:59.924Z,1.75
2022-12-04T22:26:27.832Z,1.75
2022-12-04T22:28:55.078Z,1.78
2022-12-04T22:31:23.523Z,1.76
2022-12-04T22:33:52.922Z,1.80
2022-12-04T22:36:22.853Z,1.82
2022-12-04T22:41:36.026Z,1.83
2022-12-04T22:44:02.504Z,1.85
2022-12-04T22:46:29.199Z,1.87
2022-12-04T22:48:55.753Z,1.88
2022-12-04T22:51:22.848Z,1.88
2022-12-04T22:53:52.050Z,1.88
2022-12-04T22:56:30.057Z,1.92
2022-12-04T22:58:58.015Z,1.92
2022-12-04T23:01:30.621Z,1.95
2022-12-04T23:03:57.438Z,1.99
2022-12-04T23:06:25.938Z,2.02
2022-12-04T23:08:57.533Z,2.01
2022-12-04T23:11:25.375Z,2.04
2022-12-04T23:13:54.142Z,2.04
2022-12-04T23:16:22.420Z,2.05
2022-12-04T23:18:49.578Z,2.05
2022-12-04T23:21:17.642Z,2.04
2022-12-04T23:23:45.865Z,2.06
2022-12-04T23:26:15.451Z,2.08
2022-12-04T23:28:42.544Z,2.12
2022-12-04T23:31:10.153Z,2.13
2022-12-04T23:33:36.881Z,2.14
2022-12-04T23:36:05.013Z,2.11
2022-12-04T23:38:31.616Z,2.14
2022-12-04T23:41:06.749Z,2.14
2022-12-04T23:43:33.912Z,2.17
2022-12-04T23:46:02.532Z,2.17
2022-12-04T23:48:32.540Z,2.15
2022-12-04T23:50:59.167Z,2.19
2022-12-04T23:53:25.949Z,2.14
2022-12-04T23:56:02.376Z,2.16
2022-12-04T23:58:28.803Z,2.18
